sensor_id;sensor_type;location;lat;lon;timestamp;P1;P2;P0
71858;PMS5003;59713;50.866;4.324;2024-02-23T00:00:28;4;1;
71858;PMS5003;59713;50.866;4.324;2024-02-23T00:01:28;4;1;
71858;PMS5003;59713;50.866;4.324;2024-02-23T00:02:28;3;1;
71858;PMS5003;59713;50.866;4.324;2024-02-23T00:03:28;3;1;
71858;PMS5003;59713;50.866;4.324;2024-02-23T00:04:28;3;1;
71858;PMS5003;59713;50.866;4.324;2024-02-23T00:05:28;2;1;
71858;PMS5003;59713;50.866;4.324;2024-02-23T00:06:28;2;1;
71858;PMS5003;59713;50.866;4.324;2024-02-23T00:07:28;2;1;
71858;PMS5003;59713;50.866;4.324;2024-02-23T00:08:28;4;0;
71858;PMS5003;59713;50.866;4.324;2024-02-23T00:08:28;4;0;
71858;PMS5003;59713;50.866;4.324;2024-02-23T00:09:28;4;0;
71858;PMS5003;59713;50.866;4.324;2024-02-23T00:10:28;4;0;
71858;PMS5003;59713;50.866;4.324;2024-02-23T00:11:28;5;2;
71858;PMS5003;59713;50.866;4.324;2024-02-23T00:12:28;5;2;
71858;PMS5003;59713;50.866;4.324;2024-02-23T00:13:28;5;2;
71858;PMS5003;59713;50.866;4.324;2024-02-23T00:14:28;2;0;
71858;PMS5003;59713;50.866;4.324;2024-02-23T00:15:28;2;0;
71858;PMS5003;59713;50.866;4.324;2024-02-23T00:16:28;2;0;
71858;PMS5003;59713;50.866;4.324;2024-02-23T00:17:28;0;0;
71858;PMS5003;59713;50.866;4.324;2024-02-23T00:17:28;0;0;
71858;PMS5003;59713;50.866;4.324;2024-02-23T00:18:28;0;0;
71858;PMS5003;59713;50.866;4.324;2024-02-23T00:19:29;0;0;
71858;PMS5003;59713;50.866;4.324;2024-02-23T00:20:28;1;1;
71858;PMS5003;59713;50.866;4.324;2024-02-23T00:21:28;1;1;
71858;PMS5003;59713;50.866;4.324;2024-02-23T00:22:28;1;1;
71858;PMS5003;59713;50.866;4.324;2024-02-23T00:23:28;0;0;
71858;PMS5003;59713;50.866;4.324;2024-02-23T00:24:28;0;0;
71858;PMS5003;59713;50.866;4.324;2024-02-23T00:25:28;0;0;
71858;PMS5003;59713;50.866;4.324;2024-02-23T00:26:28;10;0;
71858;PMS5003;59713;50.866;4.324;2024-02-23T00:26:28;10;0;
71858;PMS5003;59713;50.866;4.324;2024-02-23T00:27:28;10;0;
71858;PMS5003;59713;50.866;4.324;2024-02-23T00:28:28;10;0;
71858;PMS5003;59713;50.866;4.324;2024-02-23T00:29:28;1;0;
71858;PMS5003;59713;50.866;4.324;2024-02-23T00:30:28;1;0;
71858;PMS5003;59713;50.866;4.324;2024-02-23T00:31:28;1;0;
71858;PMS5003;59713;50.866;4.324;2024-02-23T00:32:28;0;0;
71858;PMS5003;59713;50.866;4.324;2024-02-23T00:33:28;0;0;
71858;PMS5003;59713;50.866;4.324;2024-02-23T00:34:28;0;0;
71858;PMS5003;59713;50.866;4.324;2024-02-23T00:35:28;2;0;
71858;PMS5003;59713;50.866;4.324;2024-02-23T00:36:28;2;0;
71858;PMS5003;59713;50.866;4.324;2024-02-23T00:36:28;2;0;
71858;PMS5003;59713;50.866;4.324;2024-02-23T00:37:28;2;0;
71858;PMS5003;59713;50.866;4.324;2024-02-23T00:38:28;1;1;
71858;PMS5003;59713;50.866;4.324;2024-02-23T00:39:28;1;1;
71858;PMS5003;59713;50.866;4.324;2024-02-23T00:40:28;1;1;
71858;PMS5003;59713;50.866;4.324;2024-02-23T00:41:28;0;0;
71858;PMS5003;59713;50.866;4.324;2024-02-23T00:42:28;0;0;
71858;PMS5003;59713;50.866;4.324;2024-02-23T00:43:28;0;0;
71858;PMS5003;59713;50.866;4.324;2024-02-23T00:44:28;0;0;
71858;PMS5003;59713;50.866;4.324;2024-02-23T00:45:28;0;0;
71858;PMS5003;59713;50.866;4.324;2024-02-23T00:45:28;0;0;
71858;PMS5003;59713;50.866;4.324;2024-02-23T00:46:28;0;0;
71858;PMS5003;59713;50.866;4.324;2024-02-23T00:47:28;0;0;
71858;PMS5003;59713;50.866;4.324;2024-02-23T00:48:28;0;0;
71858;PMS5003;59713;50.866;4.324;2024-02-23T00:49:28;0;0;
71858;PMS5003;59713;50.866;4.324;2024-02-23T00:50:28;0;0;
71858;PMS5003;59713;50.866;4.324;2024-02-23T00:51:28;0;0;
71858;PMS5003;59713;50.866;4.324;2024-02-23T00:52:28;0;0;
71858;PMS5003;59713;50.866;4.324;2024-02-23T00:53:28;0;0;
71858;PMS5003;59713;50.866;4.324;2024-02-23T00:54:28;0;0;
71858;PMS5003;59713;50.866;4.324;2024-02-23T00:54:28;0;0;
71858;PMS5003;59713;50.866;4.324;2024-02-23T00:55:29;0;0;
71858;PMS5003;59713;50.866;4.324;2024-02-23T00:56:28;3;2;
71858;PMS5003;59713;50.866;4.324;2024-02-23T00:57:28;3;2;
71858;PMS5003;59713;50.866;4.324;2024-02-23T00:58:28;3;2;
71858;PMS5003;59713;50.866;4.324;2024-02-23T00:59:28;0;0;
71858;PMS5003;59713;50.866;4.324;2024-02-23T01:00:28;0;0;
71858;PMS5003;59713;50.866;4.324;2024-02-23T01:01:28;0;0;
71858;PMS5003;59713;50.866;4.324;2024-02-23T01:02:28;1;0;
71858;PMS5003;59713;50.866;4.324;2024-02-23T01:03:28;1;0;
71858;PMS5003;59713;50.866;4.324;2024-02-23T01:03:28;1;0;
71858;PMS5003;59713;50.866;4.324;2024-02-23T01:04:28;1;0;
71858;PMS5003;59713;50.866;4.324;2024-02-23T01:05:28;0;0;
71858;PMS5003;59713;50.866;4.324;2024-02-23T01:06:28;0;0;
71858;PMS5003;59713;50.866;4.324;2024-02-23T01:07:28;0;0;
71858;PMS5003;59713;50.866;4.324;2024-02-23T01:08:28;0;0;
71858;PMS5003;59713;50.866;4.324;2024-02-23T01:09:28;0;0;
71858;PMS5003;59713;50.866;4.324;2024-02-23T01:10:28;0;0;
71858;PMS5003;59713;50.866;4.324;2024-02-23T01:11:28;2;0;
71858;PMS5003;59713;50.866;4.324;2024-02-23T01:12:28;2;0;
71858;PMS5003;59713;50.866;4.324;2024-02-23T01:12:28;2;0;
71858;PMS5003;59713;50.866;4.324;2024-02-23T01:13:28;2;0;
71858;PMS5003;59713;50.866;4.324;2024-02-23T01:14:28;1;0;
71858;PMS5003;59713;50.866;4.324;2024-02-23T01:15:28;1;0;
71858;PMS5003;59713;50.866;4.324;2024-02-23T01:16:28;1;0;
71858;PMS5003;59713;50.866;4.324;2024-02-23T01:17:28;0;0;
71858;PMS5003;59713;50.866;4.324;2024-02-23T01:18:28;0;0;
71858;PMS5003;59713;50.866;4.324;2024-02-23T01:19:28;0;0;
71858;PMS5003;59713;50.866;4.324;2024-02-23T01:20:28;2;0;
71858;PMS5003;59713;50.866;4.324;2024-02-23T01:21:28;2;0;
71858;PMS5003;59713;50.866;4.324;2024-02-23T01:21:28;2;0;
71858;PMS5003;59713;50.866;4.324;2024-02-23T01:22:28;2;0;
71858;PMS5003;59713;50.866;4.324;2024-02-23T01:23:28;1;1;
71858;PMS5003;59713;50.866;4.324;2024-02-23T01:24:28;1;1;
71858;PMS5003;59713;50.866;4.324;2024-02-23T01:25:28;1;1;
71858;PMS5003;59713;50.866;4.324;2024-02-23T01:26:28;0;0;
71858;PMS5003;59713;50.866;4.324;2024-02-23T01:27:28;0;0;
71858;PMS5003;59713;50.866;4.324;2024-02-23T01:28:28;0;0;
71858;PMS5003;59713;50.866;4.324;2024-02-23T01:29:28;2;1;
71858;PMS5003;59713;50.866;4.324;2024-02-23T01:30:28;2;1;
71858;PMS5003;59713;50.866;4.324;2024-02-23T01:31:28;2;1;
71858;PMS5003;59713;50.866;4.324;2024-02-23T01:32:28;0;0;
71858;PMS5003;59713;50.866;4.324;2024-02-23T01:33:28;0;0;
71858;PMS5003;59713;50.866;4.324;2024-02-23T01:34:28;0;0;
71858;PMS5003;59713;50.866;4.324;2024-02-23T01:35:28;4;2;
71858;PMS5003;59713;50.866;4.324;2024-02-23T01:36:28;4;2;
71858;PMS5003;59713;50.866;4.324;2024-02-23T01:37:28;4;2;
71858;PMS5003;59713;50.866;4.324;2024-02-23T01:38:28;0;0;
71858;PMS5003;59713;50.866;4.324;2024-02-23T01:39:28;0;0;
71858;PMS5003;59713;50.866;4.324;2024-02-23T01:39:28;0;0;
71858;PMS5003;59713;50.866;4.324;2024-02-23T01:40:28;0;0;
71858;PMS5003;59713;50.866;4.324;2024-02-23T01:41:28;0;0;
71858;PMS5003;59713;50.866;4.324;2024-02-23T01:42:28;0;0;
71858;PMS5003;59713;50.866;4.324;2024-02-23T01:43:28;0;0;
71858;PMS5003;59713;50.866;4.324;2024-02-23T01:44:28;0;0;
71858;PMS5003;59713;50.866;4.324;2024-02-23T01:45:28;0;0;
71858;PMS5003;59713;50.866;4.324;2024-02-23T01:46:28;0;0;
71858;PMS5003;59713;50.866;4.324;2024-02-23T01:47:28;1;0;
71858;PMS5003;59713;50.866;4.324;2024-02-23T01:48:28;1;0;
71858;PMS5003;59713;50.866;4.324;2024-02-23T01:48:28;1;0;
71858;PMS5003;59713;50.866;4.324;2024-02-23T01:49:28;1;0;
71858;PMS5003;59713;50.866;4.324;2024-02-23T01:50:28;2;0;
71858;PMS5003;59713;50.866;4.324;2024-02-23T01:51:28;2;0;
71858;PMS5003;59713;50.866;4.324;2024-02-23T01:52:28;2;0;
71858;PMS5003;59713;50.866;4.324;2024-02-23T01:53:28;2;1;
71858;PMS5003;59713;50.866;4.324;2024-02-23T01:54:28;2;1;
71858;PMS5003;59713;50.866;4.324;2024-02-23T01:55:28;2;1;
71858;PMS5003;59713;50.866;4.324;2024-02-23T01:56:28;0;0;
71858;PMS5003;59713;50.866;4.324;2024-02-23T01:57:28;0;0;
71858;PMS5003;59713;50.866;4.324;2024-02-23T01:57:28;0;0;
71858;PMS5003;59713;50.866;4.324;2024-02-23T01:58:28;0;0;
71858;PMS5003;59713;50.866;4.324;2024-02-23T01:59:28;4;2;
71858;PMS5003;59713;50.866;4.324;2024-02-23T02:00:30;4;2;
71858;PMS5003;59713;50.866;4.324;2024-02-23T02:01:28;4;2;
71858;PMS5003;59713;50.866;4.324;2024-02-23T02:02:28;0;0;
71858;PMS5003;59713;50.866;4.324;2024-02-23T02:03:28;0;0;
71858;PMS5003;59713;50.866;4.324;2024-02-23T02:04:28;0;0;
71858;PMS5003;59713;50.866;4.324;2024-02-23T02:05:28;2;1;
71858;PMS5003;59713;50.866;4.324;2024-02-23T02:06:28;2;1;
71858;PMS5003;59713;50.866;4.324;2024-02-23T02:07:28;2;1;
71858;PMS5003;59713;50.866;4.324;2024-02-23T02:07:28;2;1;
71858;PMS5003;59713;50.866;4.324;2024-02-23T02:08:28;2;0;
71858;PMS5003;59713;50.866;4.324;2024-02-23T02:09:28;2;0;
71858;PMS5003;59713;50.866;4.324;2024-02-23T02:10:28;2;0;
71858;PMS5003;59713;50.866;4.324;2024-02-23T02:11:28;3;1;
71858;PMS5003;59713;50.866;4.324;2024-02-23T02:12:28;3;1;
71858;PMS5003;59713;50.866;4.324;2024-02-23T02:13:28;3;1;
71858;PMS5003;59713;50.866;4.324;2024-02-23T02:14:28;2;2;
71858;PMS5003;59713;50.866;4.324;2024-02-23T02:15:28;2;2;
71858;PMS5003;59713;50.866;4.324;2024-02-23T02:16:28;2;2;
71858;PMS5003;59713;50.866;4.324;2024-02-23T02:16:28;2;2;
71858;PMS5003;59713;50.866;4.324;2024-02-23T02:17:28;2;2;
71858;PMS5003;59713;50.866;4.324;2024-02-23T02:18:28;2;2;
71858;PMS5003;59713;50.866;4.324;2024-02-23T02:19:28;2;2;
71858;PMS5003;59713;50.866;4.324;2024-02-23T02:20:28;4;1;
71858;PMS5003;59713;50.866;4.324;2024-02-23T02:21:28;4;1;
71858;PMS5003;59713;50.866;4.324;2024-02-23T02:22:28;4;1;
71858;PMS5003;59713;50.866;4.324;2024-02-23T02:23:28;1;1;
71858;PMS5003;59713;50.866;4.324;2024-02-23T02:24:28;1;1;
71858;PMS5003;59713;50.866;4.324;2024-02-23T02:25:28;1;1;
71858;PMS5003;59713;50.866;4.324;2024-02-23T02:25:28;1;1;
71858;PMS5003;59713;50.866;4.324;2024-02-23T02:26:29;1;1;
71858;PMS5003;59713;50.866;4.324;2024-02-23T02:27:28;1;1;
71858;PMS5003;59713;50.866;4.324;2024-02-23T02:28:28;1;1;
71858;PMS5003;59713;50.866;4.324;2024-02-23T02:29:28;2;2;
71858;PMS5003;59713;50.866;4.324;2024-02-23T02:30:28;2;2;
71858;PMS5003;59713;50.866;4.324;2024-02-23T02:31:28;2;2;
71858;PMS5003;59713;50.866;4.324;2024-02-23T02:32:28;2;1;
71858;PMS5003;59713;50.866;4.324;2024-02-23T02:33:28;2;1;
71858;PMS5003;59713;50.866;4.324;2024-02-23T02:34:28;2;1;
71858;PMS5003;59713;50.866;4.324;2024-02-23T02:34:28;2;1;
71858;PMS5003;59713;50.866;4.324;2024-02-23T02:35:28;2;2;
71858;PMS5003;59713;50.866;4.324;2024-02-23T02:36:28;2;2;
71858;PMS5003;59713;50.866;4.324;2024-02-23T02:37:28;2;2;
71858;PMS5003;59713;50.866;4.324;2024-02-23T02:38:28;2;2;
71858;PMS5003;59713;50.866;4.324;2024-02-23T02:39:28;2;2;
71858;PMS5003;59713;50.866;4.324;2024-02-23T02:40:28;2;2;
71858;PMS5003;59713;50.866;4.324;2024-02-23T02:41:28;3;2;
71858;PMS5003;59713;50.866;4.324;2024-02-23T02:42:28;3;2;
71858;PMS5003;59713;50.866;4.324;2024-02-23T02:43:28;3;2;
71858;PMS5003;59713;50.866;4.324;2024-02-23T02:43:28;3;2;
71858;PMS5003;59713;50.866;4.324;2024-02-23T02:44:28;5;3;
71858;PMS5003;59713;50.866;4.324;2024-02-23T02:45:28;5;3;
71858;PMS5003;59713;50.866;4.324;2024-02-23T02:46:28;5;3;
71858;PMS5003;59713;50.866;4.324;2024-02-23T02:47:28;1;1;
71858;PMS5003;59713;50.866;4.324;2024-02-23T02:48:28;1;1;
71858;PMS5003;59713;50.866;4.324;2024-02-23T02:49:28;1;1;
71858;PMS5003;59713;50.866;4.324;2024-02-23T02:50:28;2;1;
71858;PMS5003;59713;50.866;4.324;2024-02-23T02:51:28;2;1;
71858;PMS5003;59713;50.866;4.324;2024-02-23T02:52:28;2;1;
71858;PMS5003;59713;50.866;4.324;2024-02-23T02:52:28;2;1;
71858;PMS5003;59713;50.866;4.324;2024-02-23T02:53:28;2;2;
71858;PMS5003;59713;50.866;4.324;2024-02-23T02:54:28;2;2;
71858;PMS5003;59713;50.866;4.324;2024-02-23T02:55:28;2;2;
71858;PMS5003;59713;50.866;4.324;2024-02-23T02:56:28;2;0;
71858;PMS5003;59713;50.866;4.324;2024-02-23T02:57:28;2;0;
71858;PMS5003;59713;50.866;4.324;2024-02-23T02:58:28;2;0;
71858;PMS5003;59713;50.866;4.324;2024-02-23T02:59:28;1;1;
71858;PMS5003;59713;50.866;4.324;2024-02-23T03:00:28;1;1;
71858;PMS5003;59713;50.866;4.324;2024-02-23T03:01:28;1;1;
71858;PMS5003;59713;50.866;4.324;2024-02-23T03:01:28;1;1;
71858;PMS5003;59713;50.866;4.324;2024-02-23T03:02:28;2;2;
71858;PMS5003;59713;50.866;4.324;2024-02-23T03:03:28;2;2;
71858;PMS5003;59713;50.866;4.324;2024-02-23T03:04:28;2;2;
71858;PMS5003;59713;50.866;4.324;2024-02-23T03:05:28;1;1;
71858;PMS5003;59713;50.866;4.324;2024-02-23T03:06:28;1;1;
71858;PMS5003;59713;50.866;4.324;2024-02-23T03:07:28;1;1;
71858;PMS5003;59713;50.866;4.324;2024-02-23T03:08:28;1;1;
71858;PMS5003;59713;50.866;4.324;2024-02-23T03:09:28;1;1;
71858;PMS5003;59713;50.866;4.324;2024-02-23T03:10:28;1;1;
71858;PMS5003;59713;50.866;4.324;2024-02-23T03:10:28;1;1;
71858;PMS5003;59713;50.866;4.324;2024-02-23T03:11:28;2;2;
71858;PMS5003;59713;50.866;4.324;2024-02-23T03:12:28;2;2;
71858;PMS5003;59713;50.866;4.324;2024-02-23T03:13:28;2;2;
71858;PMS5003;59713;50.866;4.324;2024-02-23T03:14:28;1;1;
71858;PMS5003;59713;50.866;4.324;2024-02-23T03:15:28;1;1;
71858;PMS5003;59713;50.866;4.324;2024-02-23T03:16:28;1;1;
71858;PMS5003;59713;50.866;4.324;2024-02-23T03:17:28;3;0;
71858;PMS5003;59713;50.866;4.324;2024-02-23T03:18:28;3;0;
71858;PMS5003;59713;50.866;4.324;2024-02-23T03:19:28;3;0;
71858;PMS5003;59713;50.866;4.324;2024-02-23T03:19:28;3;0;
71858;PMS5003;59713;50.866;4.324;2024-02-23T03:20:28;4;1;
71858;PMS5003;59713;50.866;4.324;2024-02-23T03:21:28;4;1;
71858;PMS5003;59713;50.866;4.324;2024-02-23T03:22:28;4;1;
71858;PMS5003;59713;50.866;4.324;2024-02-23T03:23:28;3;0;
71858;PMS5003;59713;50.866;4.324;2024-02-23T03:24:28;3;0;
71858;PMS5003;59713;50.866;4.324;2024-02-23T03:25:28;3;0;
71858;PMS5003;59713;50.866;4.324;2024-02-23T03:26:28;1;1;
71858;PMS5003;59713;50.866;4.324;2024-02-23T03:27:28;1;1;
71858;PMS5003;59713;50.866;4.324;2024-02-23T03:28:28;1;1;
71858;PMS5003;59713;50.866;4.324;2024-02-23T03:28:28;1;1;
71858;PMS5003;59713;50.866;4.324;2024-02-23T03:29:28;1;0;
71858;PMS5003;59713;50.866;4.324;2024-02-23T03:30:28;1;0;
71858;PMS5003;59713;50.866;4.324;2024-02-23T03:31:28;1;0;
71858;PMS5003;59713;50.866;4.324;2024-02-23T03:32:28;2;1;
71858;PMS5003;59713;50.866;4.324;2024-02-23T03:33:28;2;1;
71858;PMS5003;59713;50.866;4.324;2024-02-23T03:34:28;2;1;
71858;PMS5003;59713;50.866;4.324;2024-02-23T03:35:28;3;2;
71858;PMS5003;59713;50.866;4.324;2024-02-23T03:36:28;3;2;
71858;PMS5003;59713;50.866;4.324;2024-02-23T03:37:28;3;2;
71858;PMS5003;59713;50.866;4.324;2024-02-23T03:37:28;3;2;
71858;PMS5003;59713;50.866;4.324;2024-02-23T03:38:28;4;2;
71858;PMS5003;59713;50.866;4.324;2024-02-23T03:39:28;4;2;
71858;PMS5003;59713;50.866;4.324;2024-02-23T03:40:28;4;2;
71858;PMS5003;59713;50.866;4.324;2024-02-23T03:41:28;4;2;
71858;PMS5003;59713;50.866;4.324;2024-02-23T03:42:28;4;2;
71858;PMS5003;59713;50.866;4.324;2024-02-23T03:43:28;4;2;
71858;PMS5003;59713;50.866;4.324;2024-02-23T03:44:28;2;1;
71858;PMS5003;59713;50.866;4.324;2024-02-23T03:45:28;2;1;
71858;PMS5003;59713;50.866;4.324;2024-02-23T03:46:28;2;1;
71858;PMS5003;59713;50.866;4.324;2024-02-23T03:47:28;1;1;
71858;PMS5003;59713;50.866;4.324;2024-02-23T03:47:28;1;1;
71858;PMS5003;59713;50.866;4.324;2024-02-23T03:48:28;1;1;
71858;PMS5003;59713;50.866;4.324;2024-02-23T03:49:28;1;1;
71858;PMS5003;59713;50.866;4.324;2024-02-23T03:50:28;1;1;
71858;PMS5003;59713;50.866;4.324;2024-02-23T03:51:28;1;1;
71858;PMS5003;59713;50.866;4.324;2024-02-23T03:52:28;1;1;
71858;PMS5003;59713;50.866;4.324;2024-02-23T03:53:28;1;1;
71858;PMS5003;59713;50.866;4.324;2024-02-23T03:54:28;1;1;
71858;PMS5003;59713;50.866;4.324;2024-02-23T03:55:29;1;1;
71858;PMS5003;59713;50.866;4.324;2024-02-23T03:56:28;2;2;
71858;PMS5003;59713;50.866;4.324;2024-02-23T03:56:28;2;2;
71858;PMS5003;59713;50.866;4.324;2024-02-23T03:57:28;2;2;
71858;PMS5003;59713;50.866;4.324;2024-02-23T03:58:28;2;2;
71858;PMS5003;59713;50.866;4.324;2024-02-23T03:59:28;2;2;
71858;PMS5003;59713;50.866;4.324;2024-02-23T04:00:28;2;2;
71858;PMS5003;59713;50.866;4.324;2024-02-23T04:01:28;2;2;
71858;PMS5003;59713;50.866;4.324;2024-02-23T04:02:28;3;1;
71858;PMS5003;59713;50.866;4.324;2024-02-23T04:03:28;3;1;
71858;PMS5003;59713;50.866;4.324;2024-02-23T04:04:28;3;1;
71858;PMS5003;59713;50.866;4.324;2024-02-23T04:05:28;4;1;
71858;PMS5003;59713;50.866;4.324;2024-02-23T04:05:28;4;1;
71858;PMS5003;59713;50.866;4.324;2024-02-23T04:06:28;4;1;
71858;PMS5003;59713;50.866;4.324;2024-02-23T04:07:28;4;1;
71858;PMS5003;59713;50.866;4.324;2024-02-23T04:08:28;3;1;
71858;PMS5003;59713;50.866;4.324;2024-02-23T04:09:28;3;1;
71858;PMS5003;59713;50.866;4.324;2024-02-23T04:10:28;3;1;
71858;PMS5003;59713;50.866;4.324;2024-02-23T04:11:28;2;1;
71858;PMS5003;59713;50.866;4.324;2024-02-23T04:12:28;2;1;
71858;PMS5003;59713;50.866;4.324;2024-02-23T04:13:28;2;1;
71858;PMS5003;59713;50.866;4.324;2024-02-23T04:14:28;5;4;
71858;PMS5003;59713;50.866;4.324;2024-02-23T04:14:28;5;4;
71858;PMS5003;59713;50.866;4.324;2024-02-23T04:15:28;5;4;
71858;PMS5003;59713;50.866;4.324;2024-02-23T04:16:28;5;4;
71858;PMS5003;59713;50.866;4.324;2024-02-23T04:17:28;4;2;
71858;PMS5003;59713;50.866;4.324;2024-02-23T04:18:28;4;2;
71858;PMS5003;59713;50.866;4.324;2024-02-23T04:19:28;4;2;
71858;PMS5003;59713;50.866;4.324;2024-02-23T04:20:28;1;1;
71858;PMS5003;59713;50.866;4.324;2024-02-23T04:21:28;1;1;
71858;PMS5003;59713;50.866;4.324;2024-02-23T04:22:28;1;1;
71858;PMS5003;59713;50.866;4.324;2024-02-23T04:23:28;1;1;
71858;PMS5003;59713;50.866;4.324;2024-02-23T04:24:28;1;1;
71858;PMS5003;59713;50.866;4.324;2024-02-23T04:25:28;1;1;
71858;PMS5003;59713;50.866;4.324;2024-02-23T04:26:28;2;1;
71858;PMS5003;59713;50.866;4.324;2024-02-23T04:27:28;2;1;
71858;PMS5003;59713;50.866;4.324;2024-02-23T04:28:28;2;1;
71858;PMS5003;59713;50.866;4.324;2024-02-23T04:29:28;3;1;
71858;PMS5003;59713;50.866;4.324;2024-02-23T04:30:28;3;1;
71858;PMS5003;59713;50.866;4.324;2024-02-23T04:31:28;3;1;
71858;PMS5003;59713;50.866;4.324;2024-02-23T04:32:28;1;1;
71858;PMS5003;59713;50.866;4.324;2024-02-23T04:33:28;1;1;
71858;PMS5003;59713;50.866;4.324;2024-02-23T04:33:28;1;1;
71858;PMS5003;59713;50.866;4.324;2024-02-23T04:34:28;1;1;
71858;PMS5003;59713;50.866;4.324;2024-02-23T04:35:28;1;1;
71858;PMS5003;59713;50.866;4.324;2024-02-23T04:36:28;1;1;
71858;PMS5003;59713;50.866;4.324;2024-02-23T04:37:28;1;1;
71858;PMS5003;59713;50.866;4.324;2024-02-23T04:38:28;2;1;
71858;PMS5003;59713;50.866;4.324;2024-02-23T04:39:28;2;1;
71858;PMS5003;59713;50.866;4.324;2024-02-23T04:40:28;2;1;
71858;PMS5003;59713;50.866;4.324;2024-02-23T04:41:28;3;1;
71858;PMS5003;59713;50.866;4.324;2024-02-23T04:42:28;3;1;
71858;PMS5003;59713;50.866;4.324;2024-02-23T04:42:28;3;1;
71858;PMS5003;59713;50.866;4.324;2024-02-23T04:43:28;3;1;
71858;PMS5003;59713;50.866;4.324;2024-02-23T04:44:28;1;1;
71858;PMS5003;59713;50.866;4.324;2024-02-23T04:45:28;1;1;
71858;PMS5003;59713;50.866;4.324;2024-02-23T04:46:28;1;1;
71858;PMS5003;59713;50.866;4.324;2024-02-23T04:47:28;4;1;
71858;PMS5003;59713;50.866;4.324;2024-02-23T04:48:28;4;1;
71858;PMS5003;59713;50.866;4.324;2024-02-23T04:49:28;4;1;
71858;PMS5003;59713;50.866;4.324;2024-02-23T04:50:28;2;1;
71858;PMS5003;59713;50.866;4.324;2024-02-23T04:51:28;2;1;
71858;PMS5003;59713;50.866;4.324;2024-02-23T04:51:28;2;1;
71858;PMS5003;59713;50.866;4.324;2024-02-23T04:52:28;2;1;
71858;PMS5003;59713;50.866;4.324;2024-02-23T04:53:28;4;3;
71858;PMS5003;59713;50.866;4.324;2024-02-23T04:54:28;4;3;
71858;PMS5003;59713;50.866;4.324;2024-02-23T04:55:28;4;3;
71858;PMS5003;59713;50.866;4.324;2024-02-23T04:56:28;4;1;
71858;PMS5003;59713;50.866;4.324;2024-02-23T04:57:28;4;1;
71858;PMS5003;59713;50.866;4.324;2024-02-23T04:58:28;4;1;
71858;PMS5003;59713;50.866;4.324;2024-02-23T04:59:28;7;2;
71858;PMS5003;59713;50.866;4.324;2024-02-23T05:00:28;7;2;
71858;PMS5003;59713;50.866;4.324;2024-02-23T05:00:28;7;2;
71858;PMS5003;59713;50.866;4.324;2024-02-23T05:01:28;7;2;
71858;PMS5003;59713;50.866;4.324;2024-02-23T05:02:28;5;2;
71858;PMS5003;59713;50.866;4.324;2024-02-23T05:03:28;5;2;
71858;PMS5003;59713;50.866;4.324;2024-02-23T05:04:28;5;2;
71858;PMS5003;59713;50.866;4.324;2024-02-23T05:05:28;4;3;
71858;PMS5003;59713;50.866;4.324;2024-02-23T05:06:28;4;3;
71858;PMS5003;59713;50.866;4.324;2024-02-23T05:07:28;4;3;
71858;PMS5003;59713;50.866;4.324;2024-02-23T05:08:28;4;1;
71858;PMS5003;59713;50.866;4.324;2024-02-23T05:09:28;4;1;
71858;PMS5003;59713;50.866;4.324;2024-02-23T05:09:28;4;1;
71858;PMS5003;59713;50.866;4.324;2024-02-23T05:10:28;4;1;
71858;PMS5003;59713;50.866;4.324;2024-02-23T05:11:28;5;1;
71858;PMS5003;59713;50.866;4.324;2024-02-23T05:12:28;5;1;
71858;PMS5003;59713;50.866;4.324;2024-02-23T05:13:28;5;1;
71858;PMS5003;59713;50.866;4.324;2024-02-23T05:14:28;4;4;
71858;PMS5003;59713;50.866;4.324;2024-02-23T05:15:28;4;4;
71858;PMS5003;59713;50.866;4.324;2024-02-23T05:16:28;4;4;
71858;PMS5003;59713;50.866;4.324;2024-02-23T05:17:28;4;2;
71858;PMS5003;59713;50.866;4.324;2024-02-23T05:18:28;4;2;
71858;PMS5003;59713;50.866;4.324;2024-02-23T05:18:28;4;2;
71858;PMS5003;59713;50.866;4.324;2024-02-23T05:19:28;4;2;
71858;PMS5003;59713;50.866;4.324;2024-02-23T05:20:28;5;3;
71858;PMS5003;59713;50.866;4.324;2024-02-23T05:21:28;5;3;
71858;PMS5003;59713;50.866;4.324;2024-02-23T05:22:28;5;3;
71858;PMS5003;59713;50.866;4.324;2024-02-23T05:23:28;4;4;
71858;PMS5003;59713;50.866;4.324;2024-02-23T05:24:28;4;4;
71858;PMS5003;59713;50.866;4.324;2024-02-23T05:25:28;4;4;
71858;PMS5003;59713;50.866;4.324;2024-02-23T05:26:28;3;2;
71858;PMS5003;59713;50.866;4.324;2024-02-23T05:27:28;3;2;
71858;PMS5003;59713;50.866;4.324;2024-02-23T05:28:28;3;2;
71858;PMS5003;59713;50.866;4.324;2024-02-23T05:29:28;6;3;
71858;PMS5003;59713;50.866;4.324;2024-02-23T05:30:28;6;3;
71858;PMS5003;59713;50.866;4.324;2024-02-23T05:31:43;6;3;
71858;PMS5003;59713;50.866;4.324;2024-02-23T05:32:28;4;3;
71858;PMS5003;59713;50.866;4.324;2024-02-23T05:33:28;4;3;
71858;PMS5003;59713;50.866;4.324;2024-02-23T05:34:28;4;3;
71858;PMS5003;59713;50.866;4.324;2024-02-23T05:35:28;5;2;
71858;PMS5003;59713;50.866;4.324;2024-02-23T05:36:28;5;2;
71858;PMS5003;59713;50.866;4.324;2024-02-23T05:36:28;5;2;
71858;PMS5003;59713;50.866;4.324;2024-02-23T05:37:28;5;2;
71858;PMS5003;59713;50.866;4.324;2024-02-23T05:38:28;4;3;
71858;PMS5003;59713;50.866;4.324;2024-02-23T05:39:28;4;3;
71858;PMS5003;59713;50.866;4.324;2024-02-23T05:40:28;4;3;
71858;PMS5003;59713;50.866;4.324;2024-02-23T05:41:28;7;2;
71858;PMS5003;59713;50.866;4.324;2024-02-23T05:42:28;7;2;
71858;PMS5003;59713;50.866;4.324;2024-02-23T05:43:28;7;2;
71858;PMS5003;59713;50.866;4.324;2024-02-23T05:44:28;2;2;
71858;PMS5003;59713;50.866;4.324;2024-02-23T05:45:28;2;2;
71858;PMS5003;59713;50.866;4.324;2024-02-23T05:45:28;2;2;
71858;PMS5003;59713;50.866;4.324;2024-02-23T05:46:28;2;2;
71858;PMS5003;59713;50.866;4.324;2024-02-23T05:47:28;4;1;
71858;PMS5003;59713;50.866;4.324;2024-02-23T05:48:28;4;1;
71858;PMS5003;59713;50.866;4.324;2024-02-23T05:49:28;4;1;
71858;PMS5003;59713;50.866;4.324;2024-02-23T05:50:28;6;2;
71858;PMS5003;59713;50.866;4.324;2024-02-23T05:51:28;6;2;
71858;PMS5003;59713;50.866;4.324;2024-02-23T05:52:29;6;2;
71858;PMS5003;59713;50.866;4.324;2024-02-23T05:53:28;2;1;
71858;PMS5003;59713;50.866;4.324;2024-02-23T05:54:28;2;1;
71858;PMS5003;59713;50.866;4.324;2024-02-23T05:54:28;2;1;
71858;PMS5003;59713;50.866;4.324;2024-02-23T05:55:28;2;1;
71858;PMS5003;59713;50.866;4.324;2024-02-23T05:56:28;3;3;
71858;PMS5003;59713;50.866;4.324;2024-02-23T05:57:28;3;3;
71858;PMS5003;59713;50.866;4.324;2024-02-23T05:58:28;3;3;
71858;PMS5003;59713;50.866;4.324;2024-02-23T05:59:28;3;3;
71858;PMS5003;59713;50.866;4.324;2024-02-23T06:00:28;3;3;
71858;PMS5003;59713;50.866;4.324;2024-02-23T06:01:28;3;3;
71858;PMS5003;59713;50.866;4.324;2024-02-23T06:02:28;4;3;
71858;PMS5003;59713;50.866;4.324;2024-02-23T06:03:28;4;3;
71858;PMS5003;59713;50.866;4.324;2024-02-23T06:03:28;4;3;
71858;PMS5003;59713;50.866;4.324;2024-02-23T06:04:28;4;3;
71858;PMS5003;59713;50.866;4.324;2024-02-23T06:05:28;3;2;
71858;PMS5003;59713;50.866;4.324;2024-02-23T06:06:28;3;2;
71858;PMS5003;59713;50.866;4.324;2024-02-23T06:07:28;3;2;
71858;PMS5003;59713;50.866;4.324;2024-02-23T06:08:28;5;2;
71858;PMS5003;59713;50.866;4.324;2024-02-23T06:09:28;5;2;
71858;PMS5003;59713;50.866;4.324;2024-02-23T06:10:28;5;2;
71858;PMS5003;59713;50.866;4.324;2024-02-23T06:11:28;6;3;
71858;PMS5003;59713;50.866;4.324;2024-02-23T06:12:28;6;3;
71858;PMS5003;59713;50.866;4.324;2024-02-23T06:12:28;6;3;
71858;PMS5003;59713;50.866;4.324;2024-02-23T06:13:28;6;3;